createdAt,value
2023-03-22T00:02:12.624Z,430.00
2023-03-22T00:06:12.751Z,431.00
2023-03-22T00:10:12.898Z,433.00
2023-03-22T00:14:13.004Z,429.00
2023-03-22T00:18:13.179Z,432.00
2023-03-22T00:22:13.333Z,430.00
2023-03-22T00:26:13.499Z,429.00
2023-03-22T00:30:13.703Z,430.00
2023-03-22T00:34:13.821Z,429.00
2023-03-22T00:38:14.014Z,430.00
2023-03-22T00:42:14.216Z,434.00
2023-03-22T00:46:14.504Z,435.00
2023-03-22T00:50:14.562Z,434.00
2023-03-22T00:54:14.880Z,431.00
2023-03-22T00:58:14.970Z,435.00
2023-03-22T01:02:15.183Z,436.00
2023-03-22T01:06:15.407Z,433.00
2023-03-22T01:10:15.662Z,438.00
2023-03-22T01:14:16.352Z,437.00
2023-03-22T01:18:16.110Z,435.00
2023-03-22T01:22:16.028Z,436.00
2023-03-22T01:26:15.994Z,433.00
2023-03-22T01:30:15.940Z,438.00
2023-03-22T01:34:15.953Z,434.00
2023-03-22T01:38:15.884Z,434.00
2023-03-22T01:42:15.873Z,434.00
2023-03-22T01:46:15.810Z,435.00
2023-03-22T01:50:15.787Z,431.00
2023-03-22T01:54:15.765Z,429.00
2023-03-22T01:58:15.893Z,432.00
2023-03-22T02:02:16.151Z,433.00
2023-03-22T02:06:16.316Z,430.00
2023-03-22T02:10:16.521Z,430.00
2023-03-22T02:14:16.684Z,430.00
2023-03-22T02:18:16.775Z,431.00
2023-03-22T02:22:16.871Z,431.00
2023-03-22T02:26:16.866Z,432.00
2023-03-22T02:30:16.925Z,431.00
2023-03-22T02:34:16.948Z,429.00
2023-03-22T02:38:16.965Z,429.00
2023-03-22T02:42:16.883Z,432.00
2023-03-22T02:46:16.911Z,435.00
2023-03-22T02:50:16.849Z,432.00
2023-03-22T02:54:16.845Z,435.00
2023-03-22T02:58:16.832Z,438.00
2023-03-22T03:02:16.861Z,432.00
2023-03-22T03:06:16.781Z,428.00
2023-03-22T03:10:16.785Z,427.00
2023-03-22T03:14:16.764Z,427.00
2023-03-22T03:18:16.783Z,431.00
2023-03-22T03:22:16.807Z,429.00
2023-03-22T03:26:16.820Z,429.00
2023-03-22T03:30:16.878Z,432.00
2023-03-22T03:34:16.917Z,433.00
2023-03-22T03:38:16.961Z,433.00
2023-03-22T03:42:16.943Z,433.00
2023-03-22T03:46:17.094Z,441.00
2023-03-22T03:50:17.108Z,437.00
2023-03-22T03:58:36.101Z,440.00
2023-03-22T04:02:36.098Z,439.00
2023-03-22T04:06:36.043Z,439.00
2023-03-22T04:10:35.985Z,434.00
2023-03-22T04:14:35.945Z,434.00
2023-03-22T04:18:35.907Z,431.00
2023-03-22T04:22:35.856Z,432.00
2023-03-22T04:26:35.787Z,437.00
2023-03-22T04:30:35.810Z,435.00
2023-03-22T04:34:35.732Z,433.00
2023-03-22T04:38:35.709Z,434.00
2023-03-22T04:42:35.662Z,439.00
2023-03-22T04:46:35.706Z,440.00
2023-03-22T04:50:35.576Z,439.00
2023-03-22T04:54:35.549Z,442.00
2023-03-22T04:58:35.692Z,440.00
2023-03-22T05:02:35.906Z,443.00
2023-03-22T05:06:36.071Z,445.00
2023-03-22T05:10:36.242Z,447.00
2023-03-22T05:14:36.489Z,449.00
2023-03-22T05:18:36.583Z,444.00
2023-03-22T05:22:36.791Z,441.00
2023-03-22T05:26:37.033Z,440.00
2023-03-22T05:30:37.409Z,440.00
2023-03-22T05:34:37.449Z,443.00
2023-03-22T05:38:37.637Z,446.00
2023-03-22T05:42:37.851Z,448.00
2023-03-22T05:46:38.088Z,449.00
2023-03-22T05:50:38.644Z,453.00
2023-03-22T05:54:38.517Z,453.00
2023-03-22T05:58:38.714Z,450.00
2023-03-22T06:02:39.040Z,452.00
2023-03-22T06:06:39.170Z,448.00
2023-03-22T06:10:39.472Z,449.00
2023-03-22T06:14:39.089Z,445.00
2023-03-22T06:18:39.058Z,447.00
2023-03-22T06:22:39.023Z,449.00
2023-03-22T06:26:39.000Z,447.00
2023-03-22T06:30:39.304Z,447.00
2023-03-22T06:34:38.892Z,444.00
2023-03-22T06:38:39.351Z,438.00
2023-03-22T06:42:39.420Z,437.00
2023-03-22T06:46:39.118Z,445.00
2023-03-22T06:50:41.243Z,439.00
2023-03-22T06:54:39.358Z,441.00
2023-03-22T06:58:39.376Z,449.00
2023-03-22T07:02:39.066Z,451.00
2023-03-22T07:06:39.019Z,458.00
2023-03-22T07:10:39.656Z,459.00
2023-03-22T07:14:38.973Z,464.00
2023-03-22T07:18:38.920Z,456.00
2023-03-22T07:22:38.860Z,467.00
2023-03-22T07:26:38.861Z,462.00
2023-03-22T07:30:39.205Z,466.00
2023-03-22T07:34:38.787Z,469.00
2023-03-22T07:38:38.722Z,477.00
2023-03-22T07:42:38.686Z,483.00
2023-03-22T07:46:38.904Z,478.00
2023-03-22T07:50:39.228Z,468.00
2023-03-22T07:54:38.897Z,473.00
2023-03-22T07:58:38.593Z,532.00
2023-03-22T08:02:38.573Z,586.00
2023-03-22T08:06:38.917Z,623.00
2023-03-22T08:10:38.756Z,660.00
2023-03-22T08:14:38.397Z,707.00
2023-03-22T08:18:38.415Z,742.00
2023-03-22T08:22:38.600Z,780.00
2023-03-22T08:26:38.544Z,816.00
2023-03-22T08:30:39.149Z,846.00
2023-03-22T08:34:38.436Z,883.00
2023-03-22T08:38:38.909Z,946.00
2023-03-22T08:42:38.439Z,993.00
2023-03-22T08:46:38.415Z,1092.00
2023-03-22T08:50:38.330Z,1132.00
2023-03-22T08:54:38.418Z,1275.00
2023-03-22T08:58:38.303Z,1377.00
2023-03-22T09:02:38.420Z,1441.00
2023-03-22T09:06:38.368Z,1535.00
2023-03-22T09:10:38.326Z,1634.00
2023-03-22T09:14:38.448Z,1719.00
2023-03-22T09:18:38.274Z,1805.00
2023-03-22T09:22:38.184Z,1857.00
2023-03-22T09:26:38.431Z,1948.00
2023-03-22T09:30:38.537Z,1993.00
2023-03-22T09:34:38.929Z,2001.00
2023-03-22T09:38:38.495Z,1983.00
2023-03-22T09:42:38.431Z,1620.00
2023-03-22T09:46:38.070Z,1493.00
2023-03-22T09:50:38.437Z,1460.00
2023-03-22T09:54:37.928Z,1708.00
2023-03-22T09:58:37.909Z,1555.00
2023-03-22T10:02:38.056Z,1544.00
2023-03-22T10:06:38.073Z,1571.00
2023-03-22T10:10:38.201Z,1635.00
2023-03-22T10:14:38.261Z,1615.00
2023-03-22T10:18:38.448Z,1570.00
2023-03-22T10:22:38.470Z,1680.00
2023-03-22T10:26:38.969Z,1701.00
2023-03-22T10:30:39.014Z,1688.00
2023-03-22T10:34:38.975Z,1769.00
2023-03-22T10:38:38.576Z,1847.00
2023-03-22T10:42:38.952Z,1817.00
2023-03-22T10:46:39.042Z,1538.00
2023-03-22T10:50:38.970Z,1693.00
2023-03-22T10:54:38.661Z,1710.00
2023-03-22T10:58:38.718Z,1785.00
2023-03-22T11:02:39.099Z,1774.00
2023-03-22T11:06:38.801Z,1825.00
2023-03-22T11:10:38.773Z,1861.00
2023-03-22T11:14:38.749Z,1939.00
2023-03-22T11:18:38.674Z,1816.00
2023-03-22T11:22:38.668Z,1828.00
2023-03-22T11:26:40.873Z,1822.00
2023-03-22T11:30:38.577Z,1888.00
2023-03-22T11:34:38.552Z,1806.00
2023-03-22T11:38:39.004Z,1686.00
2023-03-22T11:42:38.474Z,1761.00
2023-03-22T11:46:38.540Z,1793.00
2023-03-22T11:50:38.480Z,1807.00
2023-03-22T11:54:38.392Z,1797.00
2023-03-22T11:58:38.328Z,1858.00
2023-03-22T12:02:38.529Z,1857.00
2023-03-22T12:06:38.325Z,1815.00
2023-03-22T12:10:38.228Z,1805.00
2023-03-22T12:14:38.211Z,1896.00
2023-03-22T12:18:38.185Z,1902.00
2023-03-22T12:22:38.131Z,1769.00
2023-03-22T12:26:38.130Z,1737.00
2023-03-22T12:30:38.494Z,1796.00
2023-03-22T12:34:38.513Z,1621.00
2023-03-22T12:38:38.559Z,1610.00
2023-03-22T12:42:47.873Z,1510.00
2023-03-22T12:46:39.391Z,1452.00
2023-03-22T12:50:38.659Z,1447.00
2023-03-22T12:54:38.337Z,1435.00
2023-03-22T12:58:38.327Z,1366.00
2023-03-22T13:02:38.424Z,1262.00
2023-03-22T13:06:38.252Z,1234.00
2023-03-22T13:10:38.256Z,1164.00
2023-03-22T13:14:38.149Z,1143.00
2023-03-22T13:18:38.124Z,1077.00
2023-03-22T13:22:38.251Z,1051.00
2023-03-22T13:26:38.041Z,1012.00
2023-03-22T13:30:37.988Z,999.00
2023-03-22T13:34:38.071Z,975.00
2023-03-22T13:38:41.064Z,938.00
2023-03-22T13:42:37.999Z,933.00
2023-03-22T13:46:38.071Z,911.00
2023-03-22T13:50:39.023Z,851.00
2023-03-22T13:54:37.879Z,824.00
2023-03-22T13:58:37.852Z,802.00
2023-03-22T14:02:37.843Z,793.00
2023-03-22T14:06:37.771Z,782.00
2023-03-22T14:10:37.729Z,762.00
2023-03-22T14:14:37.679Z,752.00
2023-03-22T14:18:37.686Z,739.00
2023-03-22T14:47:37.845Z,678.00
2023-03-22T14:51:37.817Z,697.00
2023-03-22T14:55:37.794Z,704.00
2023-03-22T14:59:37.755Z,717.00
2023-03-22T15:03:37.701Z,710.00
2023-03-22T15:07:37.672Z,700.00
2023-03-22T15:11:37.625Z,702.00
2023-03-22T15:15:37.630Z,711.00
2023-03-22T15:19:37.559Z,715.00
2023-03-22T15:23:38.522Z,712.00
2023-03-22T15:27:37.451Z,713.00
2023-03-22T15:31:37.581Z,714.00
2023-03-22T15:35:39.162Z,709.00
2023-03-22T15:39:37.530Z,704.00
2023-03-22T15:43:37.488Z,703.00
2023-03-22T15:47:39.175Z,700.00
2023-03-22T15:51:37.393Z,696.00
2023-03-22T15:55:37.365Z,691.00
2023-03-22T15:59:37.323Z,686.00
2023-03-22T16:03:38.636Z,686.00
2023-03-22T16:07:37.304Z,689.00
2023-03-22T16:11:37.209Z,687.00
2023-03-22T16:15:37.196Z,679.00
2023-03-22T16:19:37.141Z,679.00
2023-03-22T16:23:37.095Z,678.00
2023-03-22T16:27:37.045Z,681.00
2023-03-22T16:31:40.826Z,682.00
2023-03-22T16:35:38.019Z,675.00
2023-03-22T16:39:36.935Z,672.00
2023-03-22T16:43:36.909Z,669.00
2023-03-22T16:47:36.920Z,666.00
2023-03-22T16:51:36.848Z,658.00
2023-03-22T16:55:36.816Z,655.00
2023-03-22T16:59:36.770Z,651.00
2023-03-22T17:03:36.739Z,650.00
2023-03-22T17:07:36.783Z,650.00
2023-03-22T17:11:36.709Z,648.00
2023-03-22T17:15:36.633Z,653.00
2023-03-22T17:19:36.644Z,652.00
2023-03-22T17:23:36.686Z,651.00
2023-03-22T17:27:36.715Z,647.00
2023-03-22T17:31:36.763Z,649.00
2023-03-22T17:35:36.805Z,645.00
2023-03-22T17:43:37.803Z,642.00
2023-03-22T17:47:41.412Z,642.00
2023-03-22T17:51:37.738Z,642.00
2023-03-22T17:56:10.670Z,640.00
2023-03-22T17:59:37.620Z,638.00
2023-03-22T18:03:36.709Z,638.00
2023-03-22T18:07:36.580Z,636.00
2023-03-22T18:11:36.548Z,636.00
2023-03-22T18:15:36.522Z,636.00
2023-03-22T18:19:36.918Z,632.00
2023-03-22T18:23:36.694Z,633.00
2023-03-22T18:31:36.887Z,633.00
2023-03-22T18:35:36.969Z,629.00
2023-03-22T18:43:38.036Z,630.00
2023-03-22T18:47:36.968Z,630.00
2023-03-22T18:51:59.621Z,632.00
2023-03-22T18:55:41.238Z,633.00
2023-03-22T18:59:36.919Z,624.00
2023-03-22T19:03:36.815Z,622.00
2023-03-22T19:07:55.064Z,619.00
2023-03-22T19:11:37.764Z,621.00
2023-03-22T19:19:36.673Z,615.00
2023-03-22T19:23:36.767Z,614.00
2023-03-22T19:27:37.177Z,620.00
2023-03-22T19:31:37.032Z,619.00
2023-03-22T19:35:37.187Z,617.00
2023-03-22T19:39:38.187Z,618.00
2023-03-22T19:43:37.480Z,616.00
2023-03-22T19:47:48.244Z,619.00
2023-03-22T19:51:38.605Z,610.00
2023-03-22T19:55:37.498Z,611.00
2023-03-22T19:59:38.095Z,609.00
2023-03-22T20:03:37.664Z,608.00
2023-03-22T20:07:37.870Z,609.00
2023-03-22T20:11:43.371Z,611.00
2023-03-22T20:15:39.857Z,608.00
2023-03-22T20:19:37.938Z,604.00
2023-03-22T20:23:37.989Z,603.00
2023-03-22T20:27:38.171Z,603.00
2023-03-22T20:31:38.413Z,602.00
2023-03-22T20:35:38.652Z,602.00
2023-03-22T20:39:38.799Z,594.00
2023-03-22T20:43:39.048Z,587.00
2023-03-22T20:47:39.196Z,591.00
2023-03-22T20:51:39.410Z,585.00
2023-03-22T20:55:39.869Z,585.00
2023-03-22T20:59:39.800Z,590.00
2023-03-22T21:03:40.005Z,591.00
2023-03-22T21:07:40.208Z,584.00
2023-03-22T21:11:40.395Z,585.00
2023-03-22T21:15:40.734Z,580.00
2023-03-22T21:19:40.771Z,578.00
2023-03-22T21:23:40.998Z,577.00
2023-03-22T21:27:41.160Z,580.00
2023-03-22T21:31:41.330Z,584.00
2023-03-22T21:35:41.730Z,579.00
2023-03-22T21:39:41.730Z,578.00
2023-03-22T21:43:41.913Z,572.00
2023-03-22T21:47:42.165Z,573.00
2023-03-22T21:51:42.346Z,574.00
2023-03-22T21:55:43.730Z,571.00
2023-03-22T21:59:42.557Z,572.00
2023-03-22T22:03:42.470Z,569.00
2023-03-22T22:07:42.457Z,568.00
2023-03-22T22:11:42.373Z,567.00
2023-03-22T22:15:42.796Z,563.00
2023-03-22T22:19:42.367Z,559.00
2023-03-22T22:23:42.288Z,559.00
2023-03-22T22:27:42.285Z,560.00
2023-03-22T22:31:42.236Z,559.00
2023-03-22T22:35:42.360Z,557.00
2023-03-22T22:39:42.186Z,557.00
2023-03-22T22:43:42.157Z,552.00
2023-03-22T22:47:42.103Z,550.00
2023-03-22T22:51:42.070Z,551.00
2023-03-22T22:55:42.319Z,544.00
2023-03-22T22:59:41.977Z,543.00
2023-03-22T23:03:41.943Z,544.00
2023-03-22T23:07:41.918Z,543.00
2023-03-22T23:11:41.883Z,546.00
2023-03-22T23:15:41.950Z,539.00
2023-03-22T23:19:41.861Z,538.00
2023-03-22T23:23:41.734Z,540.00
2023-03-22T23:27:42.698Z,541.00
2023-03-22T23:31:41.662Z,542.00
2023-03-22T23:35:41.816Z,539.00
2023-03-22T23:39:41.626Z,540.00
2023-03-22T23:43:41.544Z,543.00
2023-03-22T23:47:41.552Z,541.00
2023-03-22T23:51:41.475Z,540.00
2023-03-22T23:55:41.548Z,537.00
2023-03-22T23:59:41.428Z,536.00
